Time;durP1;ratioP1;P1;durP2;ratioP2;P2;SDS_P1;SDS_P2;PMS_P1;PMS_P2;Temp;Humidity;BMP_temperature;BMP_pressure;BME280_temperature;BME280_humidity;BME280_pressure;Samples;Min_cycle;Max_cycle;Signal;HPM_P1;HPM_P2
2022/07/27 00:00:59;;;;;;;11.35;7.40;;;;;;;15.93;80.56;98419.96;1625915;88;25789;-56
2022/07/27 00:03:25;;;;;;;15.85;8.18;;;;;;;15.91;80.65;98426.98;1625957;88;25730;-56
2022/07/27 00:05:51;;;;;;;11.00;7.15;;;;;;;15.84;80.79;98427.61;1626447;88;25619;-54
2022/07/27 00:08:22;;;;;;;15.70;7.58;;;;;;;15.81;80.82;98428.32;1625931;88;27405;-53
2022/07/27 00:10:49;;;;;;;10.05;6.62;;;;;;;15.77;80.97;98432.93;1626026;88;25467;-55
2022/07/27 00:13:15;;;;;;;11.50;7.20;;;;;;;15.71;81.05;98433.78;1629482;87;25914;-53
2022/07/27 00:15:42;;;;;;;11.05;7.22;;;;;;;15.68;80.87;98437.24;1634073;87;26563;-54
2022/07/27 00:18:09;;;;;;;11.20;7.17;;;;;;;15.60;80.99;98440.39;1634035;87;25667;-54
2022/07/27 00:20:38;;;;;;;13.28;7.47;;;;;;;15.58;81.23;98428.09;1633814;87;27420;-54
2022/07/27 00:23:04;;;;;;;12.80;6.85;;;;;;;15.53;81.21;98434.11;1634102;87;26101;-53
2022/07/27 00:25:31;;;;;;;9.70;6.22;;;;;;;15.47;81.11;98433.33;1634248;87;25501;-55
2022/07/27 00:27:57;;;;;;;14.60;6.92;;;;;;;15.41;81.42;98429.45;1634043;87;25710;-64
2022/07/27 00:30:24;;;;;;;9.70;5.80;;;;;;;15.39;81.53;98426.23;1634385;87;25652;-64
2022/07/27 00:32:51;;;;;;;10.13;6.30;;;;;;;15.40;81.60;98428.42;1634211;87;27576;-55
2022/07/27 00:35:17;;;;;;;7.90;6.00;;;;;;;15.39;81.46;98435.89;1634168;87;25746;-54
2022/07/27 00:37:44;;;;;;;9.75;6.08;;;;;;;15.40;81.46;98436.70;1634045;87;25457;-64
2022/07/27 00:40:11;;;;;;;8.80;6.03;;;;;;;15.38;81.63;98434.30;1634228;87;26474;-63
2022/07/27 00:42:37;;;;;;;9.68;5.95;;;;;;;15.41;81.68;98437.73;1634361;87;25512;-64
2022/07/27 00:45:05;;;;;;;9.55;6.17;;;;;;;15.43;81.59;98444.29;1634313;87;27631;-62
2022/07/27 00:47:32;;;;;;;9.48;6.25;;;;;;;15.38;81.31;98450.87;1634112;87;25628;-61
2022/07/27 00:49:59;;;;;;;10.78;6.30;;;;;;;15.34;81.41;98446.39;1634340;87;25517;-64
2022/07/27 00:52:27;;;;;;;9.98;6.20;;;;;;;15.32;81.45;98449.51;1633889;87;25815;-64
2022/07/27 00:54:53;;;;;;;7.80;6.33;;;;;;;15.29;81.40;98443.30;1634140;87;25690;-64
2022/07/27 00:57:20;;;;;;;7.90;5.42;;;;;;;15.27;81.64;98438.70;1634416;87;27672;-64
2022/07/27 00:59:46;;;;;;;10.82;5.80;;;;;;;15.23;81.27;98440.56;1634170;87;25660;-63
2022/07/27 01:02:12;;;;;;;11.38;5.83;;;;;;;15.15;81.29;98451.97;1634245;87;25626;-63
2022/07/27 01:04:38;;;;;;;9.98;5.95;;;;;;;15.09;81.75;98452.80;1633839;87;27856;-63
2022/07/27 01:07:06;;;;;;;11.57;6.35;;;;;;;15.11;81.99;98449.69;1634180;87;25497;-64
2022/07/27 01:12:20;;;;;;;11.25;6.17;;;;;;;15.09;81.53;98457.50;1633845;87;25643;-64
2022/07/27 01:14:48;;;;;;;8.83;6.45;;;;;;;14.98;81.69;98460.76;1633847;87;25715;-54
2022/07/27 01:17:16;;;;;;;9.55;5.85;;;;;;;14.90;81.90;98463.06;1634065;87;26660;-54
2022/07/27 01:19:44;;;;;;;10.93;6.00;;;;;;;14.86;82.16;98464.91;1634128;87;25606;-54
2022/07/27 01:22:11;;;;;;;13.05;6.70;;;;;;;14.82;82.06;98470.91;1634205;87;28194;-53
2022/07/27 01:24:38;;;;;;;9.63;5.95;;;;;;;14.82;82.06;98470.91;1633900;87;25669;-54
2022/07/27 01:27:06;;;;;;;10.80;6.53;;;;;;;14.80;82.45;98459.63;1634171;87;25698;-54
2022/07/27 01:29:34;;;;;;;12.07;6.78;;;;;;;14.85;82.56;98468.84;1634067;87;26641;-54
2022/07/27 01:32:02;;;;;;;9.88;7.08;;;;;;;14.85;82.81;98466.08;1634093;87;25523;-55
2022/07/27 01:34:28;;;;;;;11.05;6.90;;;;;;;14.86;83.02;98462.97;1633963;87;27503;-56
2022/07/27 01:36:54;;;;;;;9.00;6.40;;;;;;;14.85;82.94;98454.45;1634151;87;25655;-54
2022/07/27 01:39:20;;;;;;;13.08;6.67;;;;;;;14.85;82.58;98466.08;1633916;87;25493;-55
2022/07/27 01:41:47;;;;;;;9.90;6.62;;;;;;;14.80;82.95;98465.14;1634204;87;25761;-54
2022/07/27 01:44:13;;;;;;;11.12;6.67;;;;;;;14.77;82.79;98456.16;1634177;87;25618;-55
2022/07/27 01:46:40;;;;;;;10.75;6.85;;;;;;;14.74;83.41;98460.20;1633853;87;27481;-55
2022/07/27 01:49:06;;;;;;;12.55;7.37;;;;;;;14.78;83.21;98459.72;1634344;87;25838;-64
2022/07/27 01:51:33;;;;;;;11.43;6.90;;;;;;;14.78;83.21;98459.72;1634028;87;25663;-63
2022/07/27 01:54:00;;;;;;;10.50;6.90;;;;;;;14.79;83.15;98459.97;1634020;87;25736;-64
2022/07/27 01:56:26;;;;;;;10.80;6.92;;;;;;;14.76;83.12;98454.55;1634015;87;25701;-64
2022/07/27 01:58:54;;;;;;;11.40;7.40;;;;;;;14.77;83.10;98456.16;1634127;87;27616;-56
2022/07/27 02:01:20;;;;;;;12.43;7.00;;;;;;;14.83;83.25;98453.20;1633894;87;25504;-54
2022/07/27 02:03:46;;;;;;;10.98;7.35;;;;;;;14.88;83.24;98461.24;1634079;87;25699;-56
2022/07/27 02:06:12;;;;;;;10.38;6.65;;;;;;;14.81;82.84;98468.72;1634244;87;25886;-54
2022/07/27 02:08:39;;;;;;;12.63;7.45;;;;;;;14.74;83.07;98466.50;1634262;87;25450;-60
2022/07/27 02:13:50;;;;;;;11.22;7.20;;;;;;;14.76;83.67;98471.10;1633702;87;25620;-60
2022/07/27 02:16:18;;;;;;;10.60;7.17;;;;;;;14.79;83.42;98476.52;1633871;87;25493;-63
2022/07/27 02:18:46;;;;;;;11.75;7.40;;;;;;;14.80;83.47;98476.17;1634353;87;25783;-64
2022/07/27 02:21:12;;;;;;;11.22;7.78;;;;;;;14.84;83.44;98474.10;1634318;87;25415;-64
2022/07/27 02:23:39;;;;;;;12.05;7.58;;;;;;;14.77;83.24;98470.53;1634364;87;27464;-63
2022/07/27 02:26:07;;;;;;;14.87;8.25;;;;;;;14.82;83.42;98485.48;1633922;87;25709;-63
2022/07/27 02:28:35;;;;;;;11.43;7.80;;;;;;;14.82;83.32;98479.19;1634104;87;25643;-64
2022/07/27 02:31:02;;;;;;;14.38;8.68;;;;;;;14.76;83.48;98472.48;1633884;87;27855;-64
2022/07/27 02:33:28;;;;;;;13.05;8.68;;;;;;;14.72;83.36;98476.28;1634079;87;25503;-63
2022/07/27 02:35:55;;;;;;;11.78;7.67;;;;;;;14.64;83.41;98484.33;1633908;87;27425;-62
2022/07/27 02:38:22;;;;;;;11.78;8.30;;;;;;;14.61;83.62;98490.53;1633690;87;25670;-63
2022/07/27 02:40:49;;;;;;;14.05;8.43;;;;;;;14.60;83.87;98493.64;1633869;87;25631;-54
2022/07/27 02:43:15;;;;;;;11.22;8.00;;;;;;;14.61;83.81;98489.16;1633910;87;25808;-55
2022/07/27 02:45:42;;;;;;;12.82;7.72;;;;;;;14.61;83.85;98491.10;1634115;87;25639;-54
2022/07/27 02:48:08;;;;;;;9.45;7.62;;;;;;;14.58;83.75;98494.55;1633956;87;27409;-56
2022/07/27 02:50:35;;;;;;;10.23;8.13;;;;;;;14.55;83.96;98495.48;1633868;87;25525;-55
2022/07/27 02:53:01;;;;;;;11.22;8.20;;;;;;;14.60;84.25;98490.31;1633745;87;25489;-53
2022/07/27 02:55:28;;;;;;;12.33;8.58;;;;;;;14.66;84.15;98485.37;1634041;87;26145;-56
2022/07/27 02:57:55;;;;;;;11.95;8.70;;;;;;;14.66;83.57;98477.91;1633960;87;25651;-54
2022/07/27 03:00:21;;;;;;;16.02;8.68;;;;;;;14.66;83.57;98477.91;1633952;87;27479;-54
2022/07/27 03:02:49;;;;;;;12.13;8.65;;;;;;;14.73;84.02;98488.34;1633753;87;26070;-54
2022/07/27 03:05:16;;;;;;;14.55;8.78;;;;;;;14.68;84.03;98485.80;1634062;87;25638;-56
2022/07/27 03:07:42;;;;;;;15.08;8.93;;;;;;;14.75;83.82;98501.22;1633830;87;25833;-55
2022/07/27 03:10:09;;;;;;;12.23;9.23;;;;;;;14.72;83.79;98508.81;1634210;87;25655;-54
2022/07/27 03:12:35;;;;;;;13.40;9.35;;;;;;;14.66;84.05;98506.86;1634178;87;27195;-62
2022/07/27 03:15:03;;;;;;;13.93;9.23;;;;;;;14.68;83.88;98503.17;1633767;87;25686;-63
2022/07/27 03:17:29;;;;;;;12.60;8.43;;;;;;;14.71;83.70;98501.66;1633944;87;25630;-64
2022/07/27 03:19:55;;;;;;;13.60;8.95;;;;;;;14.71;83.70;98501.66;1633712;87;25795;-65
2022/07/27 03:22:21;;;;;;;16.75;9.00;;;;;;;14.74;83.81;98502.95;1634381;87;25663;-64
2022/07/27 03:24:47;;;;;;;17.45;9.78;;;;;;;14.66;84.10;98490.32;1634146;87;28232;-57
2022/07/27 03:27:14;;;;;;;14.47;9.50;;;;;;;14.74;84.38;98502.35;1633969;87;25457;-57
2022/07/27 03:29:40;;;;;;;12.55;9.10;;;;;;;14.77;84.38;98500.88;1634348;87;25468;-56
2022/07/27 03:32:06;;;;;;;14.15;9.43;;;;;;;14.80;84.30;98505.14;1633957;87;26346;-55
2022/07/27 03:34:33;;;;;;;14.95;9.85;;;;;;;14.75;84.11;98505.92;1633714;87;25456;-56
2022/07/27 03:36:59;;;;;;;13.35;9.33;;;;;;;14.80;84.21;98501.59;1633773;87;27499;-54
2022/07/27 03:39:25;;;;;;;13.03;8.88;;;;;;;14.80;84.21;98501.59;1633742;87;25493;-63
2022/07/27 03:41:51;;;;;;;14.63;9.45;;;;;;;14.90;84.34;98510.77;1634138;87;25504;-63
2022/07/27 03:44:17;;;;;;;15.48;9.33;;;;;;;14.91;84.23;98513.75;1633711;87;25776;-61
2022/07/27 03:46:43;;;;;;;14.40;9.03;;;;;;;14.92;84.13;98513.19;1634099;87;25679;-62
2022/07/27 03:49:10;;;;;;;12.53;9.05;;;;;;;14.90;84.16;98525.95;1633954;87;27431;-63
2022/07/27 03:51:36;;;;;;;13.05;9.43;;;;;;;14.89;84.61;98518.84;1634159;87;25477;-63
2022/07/27 03:54:04;;;;;;;14.85;9.23;;;;;;;14.96;84.57;98520.18;1633876;87;25593;-62
2022/07/27 03:56:32;;;;;;;16.37;10.10;;;;;;;15.02;84.52;98522.37;1633985;87;25700;-61
2022/07/27 03:59:06;;;;;;;15.03;9.28;;;;;;;15.14;84.31;98519.38;1634051;87;25615;-62
2022/07/27 04:01:39;;;;;;;17.50;10.03;;;;;;;15.14;84.31;98519.38;1633721;87;27451;-61
2022/07/27 04:04:10;;;;;;;15.80;8.73;;;;;;;15.18;84.20;98525.80;1633698;87;25239;-64
2022/07/27 04:06:39;;;;;;;;;;;;;;;15.15;84.42;98522.35;1636489;87;25473;-63
2022/07/27 04:09:15;;;;;;;14.07;9.38;;;;;;;15.12;84.38;98520.28;1634188;87;25807;-54
2022/07/27 04:11:45;;;;;;;13.88;8.70;;;;;;;15.13;84.41;98513.61;1633922;87;25658;-56
2022/07/27 04:14:20;;;;;;;13.93;8.53;;;;;;;15.17;84.19;98515.33;1633877;87;27334;-56
2022/07/27 04:16:58;;;;;;;13.80;8.70;;;;;;;15.25;84.13;98522.43;1633922;87;25807;-56
2022/07/27 04:19:24;;;;;;;13.43;7.70;;;;;;;15.32;84.11;98518.52;1633913;87;25493;-56
2022/07/27 04:21:50;;;;;;;15.65;8.50;;;;;;;15.43;83.94;98521.61;1633929;87;25694;-54
2022/07/27 04:24:16;;;;;;;11.30;7.80;;;;;;;15.59;83.90;98524.41;1633759;87;25433;-55
2022/07/27 04:26:43;;;;;;;10.23;8.05;;;;;;;15.70;83.40;98529.43;1633974;87;27409;-57
2022/07/27 04:29:09;;;;;;;11.85;8.18;;;;;;;15.79;82.94;98514.33;1633958;87;25894;-58
2022/07/27 04:31:35;;;;;;;14.23;7.97;;;;;;;15.89;83.15;98512.21;1634042;87;25521;-55
2022/07/27 04:34:01;;;;;;;10.55;7.70;;;;;;;16.08;83.07;98515.70;1633811;87;26777;-55
2022/07/27 04:36:28;;;;;;;10.98;7.80;;;;;;;16.26;82.65;98521.69;1634148;87;25921;-64
2022/07/27 04:38:53;;;;;;;11.15;8.05;;;;;;;16.42;82.12;98523.66;1634053;87;27647;-63
2022/07/27 04:41:19;;;;;;;10.82;7.72;;;;;;;16.50;81.97;98525.45;1634006;87;25611;-64
2022/07/27 04:43:45;;;;;;;11.53;7.42;;;;;;;16.66;81.72;98527.39;1634058;87;25490;-64
2022/07/27 04:46:13;;;;;;;12.65;7.75;;;;;;;16.79;81.70;98528.11;1633763;87;25916;-65
2022/07/27 04:48:39;;;;;;;11.33;7.35;;;;;;;17.01;81.63;98536.31;1633956;87;25684;-62
2022/07/27 04:51:05;;;;;;;10.48;7.10;;;;;;;17.26;81.48;98526.99;1634200;87;28197;-56
2022/07/27 04:53:31;;;;;;;12.88;7.80;;;;;;;17.39;79.71;98522.92;1634043;87;25695;-56
2022/07/27 04:55:57;;;;;;;12.93;7.30;;;;;;;17.44;80.11;98527.38;1634184;87;25651;-55
2022/07/27 04:58:24;;;;;;;10.50;7.65;;;;;;;17.61;80.02;98520.61;1634114;87;25654;-57
2022/07/27 05:00:50;;;;;;;10.82;7.22;;;;;;;17.81;80.06;98526.95;1634035;87;25461;-56
2022/07/27 05:03:17;;;;;;;9.85;6.95;;;;;;;17.94;79.71;98528.96;1633787;87;27467;-56
2022/07/27 05:05:43;;;;;;;8.43;7.15;;;;;;;18.14;79.59;98529.56;1634081;87;25653;-57
2022/07/27 05:08:09;;;;;;;11.85;7.10;;;;;;;18.33;79.16;98536.23;1633881;87;25607;-56
2022/07/27 05:10:35;;;;;;;10.50;7.25;;;;;;;18.46;78.76;98536.27;1634083;87;25801;-65
2022/07/27 05:13:01;;;;;;;9.25;6.28;;;;;;;18.62;78.09;98546.44;1634289;87;25655;-64
2022/07/27 05:15:27;;;;;;;7.25;6.20;;;;;;;18.55;77.32;98546.53;1634026;87;27412;-60
2022/07/27 05:17:53;;;;;;;10.48;6.65;;;;;;;18.51;77.25;98540.09;1634197;87;25685;-64
2022/07/27 05:20:20;;;;;;;9.80;6.28;;;;;;;18.49;77.71;98545.81;1634112;87;25581;-65
2022/07/27 05:25:24;;;;;;;8.50;6.62;;;;;;;18.65;77.47;98542.31;1553371;91;25760;-65
2022/07/27 05:27:59;;;;;;;7.85;6.30;;;;;;;18.68;77.09;98543.53;1575342;91;26033;-64
2022/07/27 05:30:26;;;;;;;7.80;6.35;;;;;;;18.73;76.90;98546.01;1575525;91;25876;-62
2022/07/27 05:32:52;;;;;;;11.83;6.95;;;;;;;18.75;76.95;98550.61;1575482;91;25764;-65
2022/07/27 05:35:19;;;;;;;9.13;6.58;;;;;;;18.82;75.46;98542.97;1575307;91;25723;-56
2022/07/27 05:37:45;;;;;;;8.05;6.30;;;;;;;18.59;74.48;98542.41;1575400;91;25742;-54
2022/07/27 05:40:12;;;;;;;9.40;6.80;;;;;;;18.58;75.28;98545.55;1575625;91;27433;-56
2022/07/27 05:42:42;;;;;;;7.28;6.10;;;;;;;18.57;76.08;98542.00;1575612;91;25774;-55
2022/07/27 05:45:10;;;;;;;7.85;6.47;;;;;;;18.63;74.69;98543.29;1575695;91;25894;-57
2022/07/27 05:47:37;;;;;;;8.03;6.67;;;;;;;18.80;73.86;98556.44;1575593;91;25814;-56
2022/07/27 05:50:05;;;;;;;7.50;6.75;;;;;;;18.97;75.60;98560.64;1575445;91;25822;-55
2022/07/27 05:52:31;;;;;;;7.45;6.65;;;;;;;19.17;73.71;98559.98;1575580;91;27475;-55
2022/07/27 05:54:58;;;;;;;9.65;6.75;;;;;;;19.05;73.20;98559.59;1575189;91;25556;-56
2022/07/27 05:57:24;;;;;;;7.62;6.20;;;;;;;19.06;74.21;98563.96;1575702;91;25555;-63
2022/07/27 05:59:53;;;;;;;9.30;6.80;;;;;;;19.14;73.92;98564.12;1571996;91;25909;-62
2022/07/27 06:02:18;;;;;;;8.13;6.78;;;;;;;19.39;74.00;98560.87;1575197;90;25548;-65
2022/07/27 06:04:45;;;;;;;7.53;6.67;;;;;;;19.48;73.52;98567.53;1575300;91;27492;-65
2022/07/27 06:09:56;;;;;;;8.08;6.58;;;;;;;19.83;73.12;98581.69;1575357;91;25589;-65
2022/07/27 06:12:22;;;;;;;9.45;6.65;;;;;;;19.80;71.99;98576.30;1575322;91;25772;-65
2022/07/27 06:14:48;;;;;;;10.28;6.50;;;;;;;19.83;72.27;98578.91;1572335;91;25837;-65
2022/07/27 06:17:15;;;;;;;7.25;6.55;;;;;;;19.88;72.74;98580.55;1565162;91;27400;-57
2022/07/27 06:19:42;;;;;;;8.85;6.90;;;;;;;19.90;71.35;98574.03;1564939;91;25898;-57
2022/07/27 06:22:09;;;;;;;7.35;6.47;;;;;;;19.77;71.33;98575.67;1565068;91;25578;-58
2022/07/27 06:24:36;;;;;;;7.87;6.40;;;;;;;19.79;71.37;98569.73;1564972;91;25916;-56
2022/07/27 06:27:03;;;;;;;7.95;6.62;;;;;;;19.80;70.96;98576.30;1565260;91;25656;-56
2022/07/27 06:29:29;;;;;;;7.85;6.40;;;;;;;19.89;71.89;98572.44;1564925;91;27516;-56
2022/07/27 06:31:56;;;;;;;9.65;6.65;;;;;;;20.01;70.43;98570.80;1564912;91;25843;-56
2022/07/27 06:34:23;;;;;;;7.47;6.78;;;;;;;20.11;70.88;98575.47;1565032;91;25692;-56
2022/07/27 06:36:51;;;;;;;7.42;6.47;;;;;;;20.20;71.44;98583.54;1564826;91;25763;-57
2022/07/27 06:39:18;;;;;;;7.58;6.65;;;;;;;20.30;71.36;98582.84;1564758;91;25707;-57
2022/07/27 06:41:44;;;;;;;9.25;6.97;;;;;;;20.41;70.94;98588.52;1600980;88;27413;-63
2022/07/27 06:44:11;;;;;;;7.15;6.45;;;;;;;20.52;69.90;98595.59;1628845;88;25591;-65
2022/07/27 06:46:38;;;;;;;7.65;6.65;;;;;;;20.59;69.07;98587.30;1628859;88;25479;-65
2022/07/27 06:49:04;;;;;;;7.45;6.55;;;;;;;20.48;69.34;98594.16;1628681;88;25751;-65
2022/07/27 06:51:31;;;;;;;8.18;6.53;;;;;;;20.47;68.30;98593.95;1628706;88;25663;-66
2022/07/27 06:53:58;;;;;;;9.10;6.95;;;;;;;20.40;68.32;98596.06;1628179;88;27418;-61
2022/07/27 06:56:25;;;;;;;8.95;6.70;;;;;;;20.28;69.24;98592.16;1626497;88;26200;-65
2022/07/27 06:58:52;;;;;;;7.60;6.75;;;;;;;20.26;69.79;98591.14;1628933;88;25739;-63
2022/07/27 07:01:18;;;;;;;7.37;6.55;;;;;;;20.39;69.86;98590.87;1628682;88;25759;-56
2022/07/27 07:03:45;;;;;;;9.20;6.50;;;;;;;20.58;69.28;98591.86;1629180;88;25700;-57
2022/07/27 07:06:11;;;;;;;7.72;6.65;;;;;;;20.72;69.57;98588.41;1628943;88;27409;-56
2022/07/27 07:08:38;;;;;;;9.25;7.22;;;;;;;20.80;69.10;98580.30;1628835;88;25513;-57
2022/07/27 07:11:05;;;;;;;8.38;7.08;;;;;;;20.64;68.75;98585.53;1628743;88;25713;-56
2022/07/27 07:13:32;;;;;;;7.80;7.00;;;;;;;20.58;69.52;98583.50;1628768;88;26366;-56
2022/07/27 07:15:59;;;;;;;8.83;6.90;;;;;;;20.55;68.96;98590.63;1630461;87;25438;-56
2022/07/27 07:18:25;;;;;;;7.62;6.92;;;;;;;20.55;69.45;98590.04;1631646;88;27584;-56
2022/07/27 07:20:53;;;;;;;9.13;7.22;;;;;;;20.63;69.73;98588.12;1631550;88;25627;-65
2022/07/27 07:23:20;;;;;;;7.72;6.78;;;;;;;20.76;69.25;98593.41;1631501;88;25762;-66
2022/07/27 07:25:46;;;;;;;11.70;6.75;;;;;;;20.76;68.20;98587.84;1631740;87;25694;-65
2022/07/27 07:28:13;;;;;;;8.80;6.85;;;;;;;20.72;67.94;98581.45;1631694;88;25573;-62
2022/07/27 07:30:40;;;;;;;8.80;6.50;;;;;;;20.63;67.92;98578.96;1631509;88;28613;-66
2022/07/27 07:33:07;;;;;;;7.60;5.75;;;;;;;20.55;68.14;98585.05;1631321;88;25832;-66
2022/07/27 07:35:34;;;;;;;8.33;6.72;;;;;;;20.50;68.53;98586.23;1631675;88;25599;-66
2022/07/27 07:38:00;;;;;;;10.50;6.90;;;;;;;20.58;68.79;98584.29;1631655;88;25643;-65
2022/07/27 07:40:27;;;;;;;7.70;6.72;;;;;;;20.71;69.14;98589.58;1631715;88;25603;-66
2022/07/27 07:43:00;;;;;;;9.15;6.35;;;;;;;20.83;69.25;98588.47;1631450;87;27362;-65
2022/07/27 07:45:29;;;;;;;7.75;6.92;;;;;;;20.96;69.38;98594.59;1631613;87;25623;-56
2022/07/27 07:47:57;;;;;;;8.55;6.35;;;;;;;21.11;68.17;98599.67;1631650;87;25828;-56
2022/07/27 07:50:25;;;;;;;7.95;6.30;;;;;;;21.12;68.76;98597.89;1631610;88;25806;-56
2022/07/27 07:52:53;;;;;;;7.65;6.95;;;;;;;21.15;68.47;98599.09;1631609;88;25493;-62
2022/07/27 07:55:26;;;;;;;6.67;6.05;;;;;;;21.23;66.51;98607.72;1631735;88;27455;-58
2022/07/27 07:57:54;;;;;;;6.72;6.05;;;;;;;21.27;67.88;98603.58;1631832;87;25486;-57
2022/07/27 08:00:21;;;;;;;9.50;7.28;;;;;;;21.52;68.43;98608.48;1631420;88;25771;-62
2022/07/27 08:02:59;;;;;;;8.83;6.20;;;;;;;21.92;67.92;98603.13;1631698;87;25240;-59
2022/07/27 08:05:27;;;;;;;7.92;6.78;;;;;;;22.11;64.90;98592.25;1631607;88;25650;-57
2022/07/27 08:07:54;;;;;;;8.63;6.55;;;;;;;21.88;63.59;98598.14;1631464;88;27487;-57
2022/07/27 08:10:21;;;;;;;8.48;6.90;;;;;;;21.69;65.43;98596.64;1631602;88;25580;-58
2022/07/27 08:12:52;;;;;;;7.85;6.45;;;;;;;21.85;64.95;98599.73;1631802;87;25489;-65
2022/07/27 08:15:19;;;;;;;8.00;6.83;;;;;;;22.13;66.16;98599.62;1631610;87;26484;-67
2022/07/27 08:17:47;;;;;;;7.35;6.25;;;;;;;22.46;64.10;98596.11;1631715;88;25675;-66
2022/07/27 08:20:15;;;;;;;9.60;7.00;;;;;;;22.48;63.20;98590.93;1631563;88;27409;-66
2022/07/27 08:22:43;;;;;;;7.50;6.37;;;;;;;22.77;63.37;98595.95;1631908;88;25689;-67
2022/07/27 08:25:11;;;;;;;7.30;5.80;;;;;;;23.09;63.17;98595.77;1631728;88;25394;-66
2022/07/27 08:27:39;;;;;;;6.67;5.92;;;;;;;23.11;60.83;98599.56;1609445;88;25751;-57
2022/07/27 08:30:07;;;;;;;6.17;5.58;;;;;;;23.16;60.96;98593.55;1631540;88;25774;-57
2022/07/27 08:32:50;;;;;;;6.30;5.60;;;;;;;23.11;60.28;98596.14;1631801;87;27433;-56
2022/07/27 08:35:18;;;;;;;9.28;5.00;;;;;;;22.98;58.98;98597.76;1631201;88;25487;-57
2022/07/27 08:37:45;;;;;;;5.40;4.90;;;;;;;23.10;60.27;98597.94;1631798;88;25462;-57
2022/07/27 08:40:14;;;;;;;5.47;4.97;;;;;;;23.30;59.58;98600.53;1631774;88;25797;-57
2022/07/27 08:42:45;;;;;;;6.47;5.22;;;;;;;23.42;59.40;98600.73;1631858;87;25727;-63
2022/07/27 08:45:15;;;;;;;7.05;4.95;;;;;;;23.48;58.59;98601.70;1631616;88;27569;-66
2022/07/27 08:47:44;;;;;;;6.47;5.12;;;;;;;23.34;58.58;98599.72;1631795;87;25754;-67
2022/07/27 08:50:27;;;;;;;4.85;4.45;;;;;;;23.18;58.08;98597.55;1631989;88;25599;-63
2022/07/27 08:53:04;;;;;;;8.10;5.60;;;;;;;23.09;57.74;98596.36;1631502;88;25717;-66
2022/07/27 08:55:35;;;;;;;6.37;5.30;;;;;;;23.05;58.68;98592.97;1631828;88;25675;-63
2022/07/27 08:58:03;;;;;;;5.70;5.10;;;;;;;22.95;57.91;98592.38;1631292;87;28128;-63
2022/07/27 09:00:31;;;;;;;6.22;5.62;;;;;;;23.07;59.88;98589.77;1631661;88;25679;-63
2022/07/27 09:02:59;;;;;;;8.38;5.70;;;;;;;23.19;59.42;98588.55;1631820;87;25612;-67
2022/07/27 09:05:26;;;;;;;6.35;5.05;;;;;;;23.31;57.90;98583.94;1630348;86;25927;-67
2022/07/27 09:07:52;;;;;;;5.37;4.72;;;;;;;23.27;57.43;98575.36;1630447;87;25704;-67
2022/07/27 09:10:33;;;;;;;5.08;4.53;;;;;;;23.25;57.33;98577.16;1630908;87;27386;-58
2022/07/27 09:13:18;;;;;;;5.37;4.12;;;;;;;23.34;56.25;98585.75;1630719;87;26392;-57
2022/07/27 09:15:49;;;;;;;5.03;4.53;;;;;;;23.47;57.91;98587.53;1630723;87;26006;-62
2022/07/27 09:18:22;;;;;;;4.97;4.47;;;;;;;23.78;56.71;98590.63;1630390;87;26568;-57
2022/07/27 09:21:17;;;;;;;5.00;4.50;;;;;;;23.69;56.20;98586.25;1631048;87;25734;-58
2022/07/27 09:23:57;;;;;;;4.35;3.95;;;;;;;23.67;56.68;98590.08;1631609;88;27523;-58
2022/07/27 09:26:28;;;;;;;5.92;4.53;;;;;;;24.31;56.98;98583.20;1631465;87;25940;-61
2022/07/27 09:29:02;;;;;;;4.25;3.80;;;;;;;24.81;55.81;98584.63;1632007;87;25621;-57
2022/07/27 09:31:29;;;;;;;5.15;4.25;;;;;;;24.92;52.22;98587.38;1631051;88;25646;-59
2022/07/27 09:34:00;;;;;;;4.75;4.30;;;;;;;24.71;52.88;98582.71;1631629;88;25710;-57
2022/07/27 09:36:29;;;;;;;3.77;3.45;;;;;;;24.93;53.77;98579.95;1631832;87;27577;-58
2022/07/27 09:39:05;;;;;;;4.17;3.40;;;;;;;25.29;54.14;98577.42;1632125;87;25615;-61
2022/07/27 09:41:48;;;;;;;5.55;3.40;;;;;;;25.37;52.21;98573.13;1630058;88;25489;-58
2022/07/27 09:44:17;;;;;;;5.30;3.52;;;;;;;25.33;53.72;98570.38;1627452;88;26279;-67
2022/07/27 09:46:47;;;;;;;3.92;2.90;;;;;;;25.21;52.82;98562.49;1631900;87;25683;-67
2022/07/27 09:49:32;;;;;;;3.90;2.85;;;;;;;25.35;54.09;98563.73;1631917;87;28297;-68
2022/07/27 09:52:02;;;;;;;4.25;3.00;;;;;;;25.61;51.94;98553.64;1631725;87;25637;-67
2022/07/27 09:54:45;;;;;;;2.77;2.58;;;;;;;25.87;51.69;98549.31;1631733;87;25448;-58
2022/07/27 09:57:12;;;;;;;4.53;2.90;;;;;;;26.08;51.91;98548.05;1631561;87;25733;-57
2022/07/27 09:59:39;;;;;;;3.15;2.85;;;;;;;26.25;52.27;98555.41;1631572;88;25434;-57
2022/07/27 10:02:07;;;;;;;5.80;3.40;;;;;;;26.46;49.83;98555.54;1631645;88;27587;-58
2022/07/27 10:04:34;;;;;;;3.85;3.30;;;;;;;25.88;50.51;98560.72;1631427;88;25520;-58
2022/07/27 10:07:01;;;;;;;3.33;3.05;;;;;;;25.55;51.86;98556.09;1631671;88;25433;-64
2022/07/27 10:09:30;;;;;;;3.25;3.02;;;;;;;25.95;50.19;98559.84;1631803;87;25735;-63
2022/07/27 10:11:57;;;;;;;4.22;3.22;;;;;;;26.18;50.86;98556.92;1631801;87;25670;-67
2022/07/27 10:14:24;;;;;;;4.03;3.60;;;;;;;26.40;51.04;98567.25;1631669;88;27631;-61
2022/07/27 10:16:53;;;;;;;5.15;4.28;;;;;;;26.86;50.35;98552.89;1628518;87;25484;-65
2022/07/27 10:19:37;;;;;;;4.53;4.12;;;;;;;26.77;48.44;98564.66;1600639;88;25749;-65
2022/07/27 10:22:04;;;;;;;4.67;4.10;;;;;;;26.85;48.61;98563.16;1626065;87;26082;-66
2022/07/27 10:24:35;;;;;;;4.55;4.15;;;;;;;27.42;47.94;98568.37;1626213;87;25670;-65
2022/07/27 10:27:21;;;;;;;4.50;4.03;;;;;;;27.71;48.52;98574.06;1626180;88;25687;-66
2022/07/27 10:29:50;;;;;;;4.60;4.20;;;;;;;28.33;46.39;98571.97;1626118;88;26020;-66
2022/07/27 10:32:30;;;;;;;4.73;4.33;;;;;;;28.53;45.77;98575.50;1626575;88;25695;-66
2022/07/27 10:34:59;;;;;;;4.50;4.10;;;;;;;28.93;47.52;98576.58;1625681;87;26319;-66
2022/07/27 10:37:32;;;;;;;4.50;4.10;;;;;;;29.24;47.46;98572.59;1624064;88;26268;-59
2022/07/27 10:42:50;;;;;;;2.72;2.52;;;;;;;29.36;44.58;98572.46;1625944;88;25775;-57
2022/07/27 10:45:18;;;;;;;2.72;2.40;;;;;;;29.00;41.58;98569.97;1626296;88;25628;-57
2022/07/27 10:47:51;;;;;;;2.10;2.00;;;;;;;28.99;40.36;98564.97;1626211;88;25919;-58
2022/07/27 10:50:46;;;;;;;4.55;2.40;;;;;;;28.79;41.93;98571.48;1626093;87;25710;-57
2022/07/27 10:53:21;;;;;;;2.33;2.12;;;;;;;29.34;42.54;98572.11;1623709;88;26059;-58
2022/07/27 10:55:49;;;;;;;1.95;1.80;;;;;;;29.01;39.32;98568.75;1602786;88;25824;-55
2022/07/27 10:58:27;;;;;;;2.92;2.00;;;;;;;28.57;38.90;98564.15;1629796;88;25617;-55
2022/07/27 11:01:02;;;;;;;2.95;2.20;;;;;;;28.62;40.17;98560.81;1628020;88;25725;-55
2022/07/27 11:03:33;;;;;;;1.87;1.75;;;;;;;28.95;39.61;98565.66;1627664;88;25483;-55
2022/07/27 11:06:09;;;;;;;2.62;2.00;;;;;;;29.57;39.82;98573.13;1628540;87;27381;-55
2022/07/27 11:08:42;;;;;;;2.00;1.90;;;;;;;29.92;38.61;98565.65;1629445;88;25818;-59
2022/07/27 11:11:17;;;;;;;2.50;2.30;;;;;;;30.24;38.23;98564.52;1629097;87;25754;-58
2022/07/27 11:13:46;;;;;;;2.72;2.15;;;;;;;30.47;37.41;98558.34;1630018;88;25991;-57
2022/07/27 11:16:17;;;;;;;2.27;2.13;;;;;;;30.25;36.94;98555.42;1630935;87;25669;-62
2022/07/27 11:19:02;;;;;;;2.52;2.33;;;;;;;29.85;38.34;98566.48;1634921;87;27600;-60
2022/07/27 11:21:37;;;;;;;2.60;2.30;;;;;;;30.10;38.19;98556.47;1634762;87;25506;-57
2022/07/27 11:24:11;;;;;;;2.25;1.90;;;;;;;30.45;38.19;98557.99;1635004;87;25471;-57
2022/07/27 11:26:48;;;;;;;2.47;2.27;;;;;;;30.33;36.60;98558.17;1634888;87;25762;-58
2022/07/27 11:29:18;;;;;;;2.50;2.10;;;;;;;29.63;36.67;98566.48;1634962;87;25587;-63
2022/07/27 11:31:47;;;;;;;2.47;1.95;;;;;;;29.43;38.23;98571.65;1635176;87;27496;-58
2022/07/27 11:34:16;;;;;;;3.22;2.15;;;;;;;29.57;37.31;98561.83;1631242;87;25705;-60
2022/07/27 11:36:47;;;;;;;1.90;1.72;;;;;;;29.48;37.04;98565.28;1634749;87;25728;-57
2022/07/27 11:39:18;;;;;;;2.37;2.17;;;;;;;29.52;36.62;98563.14;1634796;87;25734;-62
2022/07/27 11:41:44;;;;;;;2.90;2.70;;;;;;;29.54;37.88;98562.88;1635046;87;25705;-59
2022/07/27 11:44:16;;;;;;;2.95;2.70;;;;;;;29.38;37.76;98558.07;1634998;87;27399;-59
2022/07/27 11:46:45;;;;;;;3.30;2.83;;;;;;;29.63;38.80;98558.02;1635035;87;25702;-61
2022/07/27 11:49:22;;;;;;;3.35;2.62;;;;;;;30.26;38.52;98547.91;1635223;87;25653;-63
2022/07/27 11:51:49;;;;;;;2.85;2.62;;;;;;;30.75;37.41;98544.52;1634633;87;25678;-65